KAC108 KDEN-KTEX
Flight info
| Callsign | KAC108 |
|---|---|
| Flight time | 0h 39m |
| Altitude | 32000 |
| Route | BAYLR6 TEHRU HERRM/N0452F310 ETL |
| Aircraft | B738/M-SDE2E3FGHIRWXY/LB1 |
Departure
| Time | 2026-05-07 00:44 |
|---|---|
| Airport | Denver International Airport (KDEN) |
Arrival
| Time | 2026-05-07 01:23 |
|---|---|
| Airport | Telluride Regional Airport (KTEX) |
| Time | Latitude | Longitude | Altitude | Speed | Heading |
|---|---|---|---|---|---|
| 2026-05-07 00:01 | 39.85450 | -104.67556 | 5385 ft | 0 kts | 180° |
| 2026-05-07 00:28 | 39.85451 | -104.67556 | 5385 ft | 1 kts | 180° |
| 2026-05-07 00:28 | 39.85475 | -104.67557 | 5384 ft | 4 kts | 174° |
| 2026-05-07 00:28 | 39.85501 | -104.67557 | 5385 ft | 4 kts | 195° |
| 2026-05-07 00:29 | 39.85521 | -104.67542 | 5385 ft | 4 kts | 255° |
| 2026-05-07 00:29 | 39.85522 | -104.67533 | 5385 ft | 1 kts | 270° |
| 2026-05-07 00:35 | 39.85522 | -104.67535 | 5385 ft | 1 kts | 270° |
| 2026-05-07 00:35 | 39.85523 | -104.67585 | 5383 ft | 9 kts | 270° |
| 2026-05-07 00:35 | 39.85523 | -104.67666 | 5385 ft | 9 kts | 270° |
| 2026-05-07 00:36 | 39.85529 | -104.67745 | 5385 ft | 9 kts | 291° |
| 2026-05-07 00:36 | 39.85573 | -104.67794 | 5384 ft | 8 kts | 326° |
| 2026-05-07 00:36 | 39.85592 | -104.67862 | 5386 ft | 8 kts | 275° |
| 2026-05-07 00:36 | 39.85593 | -104.67935 | 5385 ft | 8 kts | 270° |
| 2026-05-07 00:37 | 39.85594 | -104.68005 | 5385 ft | 8 kts | 271° |
| 2026-05-07 00:37 | 39.85595 | -104.68074 | 5385 ft | 8 kts | 271° |
| 2026-05-07 00:37 | 39.85596 | -104.68152 | 5385 ft | 10 kts | 264° |
| 2026-05-07 00:37 | 39.85541 | -104.68199 | 5383 ft | 10 kts | 186° |
| 2026-05-07 00:38 | 39.85472 | -104.68201 | 5382 ft | 10 kts | 180° |
| 2026-05-07 00:38 | 39.85405 | -104.68203 | 5385 ft | 10 kts | 181° |
| 2026-05-07 00:38 | 39.85333 | -104.68205 | 5385 ft | 12 kts | 181° |
| 2026-05-07 00:38 | 39.85253 | -104.68214 | 5386 ft | 11 kts | 200° |
| 2026-05-07 00:39 | 39.85215 | -104.68298 | 5383 ft | 11 kts | 253° |
| 2026-05-07 00:39 | 39.85206 | -104.68405 | 5378 ft | 15 kts | 269° |
| 2026-05-07 00:39 | 39.85205 | -104.68574 | 5368 ft | 20 kts | 268° |
| 2026-05-07 00:39 | 39.85201 | -104.68767 | 5361 ft | 22 kts | 269° |
| 2026-05-07 00:40 | 39.85197 | -104.68973 | 5353 ft | 23 kts | 268° |
| 2026-05-07 00:40 | 39.85197 | -104.69179 | 5345 ft | 22 kts | 271° |
| 2026-05-07 00:40 | 39.85201 | -104.69379 | 5342 ft | 22 kts | 271° |
| 2026-05-07 00:40 | 39.85202 | -104.69513 | 5333 ft | 0 kts | 270° |
| 2026-05-07 00:41 | 39.85202 | -104.69514 | 5333 ft | 0 kts | 270° |
| 2026-05-07 00:41 | 39.85202 | -104.69519 | 5333 ft | 2 kts | 270° |
| 2026-05-07 00:42 | 39.85202 | -104.69556 | 5335 ft | 8 kts | 270° |
| 2026-05-07 00:42 | 39.85222 | -104.69640 | 5335 ft | 10 kts | 313° |
| 2026-05-07 00:42 | 39.85286 | -104.69661 | 5336 ft | 10 kts | 0° |
| 2026-05-07 00:42 | 39.85289 | -104.69661 | 5335 ft | 0 kts | 0° |
| 2026-05-07 00:43 | 39.85403 | -104.69660 | 5338 ft | 54 kts | 0° |
| 2026-05-07 00:43 | 39.86068 | -104.69654 | 5339 ft | 135 kts | 1° |
| 2026-05-07 00:44 | 39.87208 | -104.69638 | 5569 ft | 182 kts | 1° |
| 2026-05-07 00:44 | 39.88508 | -104.69608 | 6470 ft | 195 kts | 0° |
| 2026-05-07 00:44 | 39.89918 | -104.69643 | 7240 ft | 214 kts | 353° |
| 2026-05-07 00:44 | 39.91364 | -104.70506 | 7495 ft | 243 kts | 314° |
| 2026-05-07 00:45 | 39.92197 | -104.72476 | 7718 ft | 268 kts | 279° |
| 2026-05-07 00:45 | 39.92071 | -104.74922 | 8398 ft | 276 kts | 249° |
| 2026-05-07 00:45 | 39.91018 | -104.76993 | 9288 ft | 279 kts | 221° |
| 2026-05-07 00:45 | 39.89473 | -104.78553 | 9778 ft | 281 kts | 217° |
| 2026-05-07 00:46 | 39.87875 | -104.80040 | 9998 ft | 286 kts | 217° |
| 2026-05-07 00:46 | 39.86248 | -104.81581 | 9986 ft | 290 kts | 218° |
| 2026-05-07 00:46 | 39.84638 | -104.83159 | 9984 ft | 288 kts | 219° |
| 2026-05-07 00:46 | 39.83059 | -104.84745 | 9976 ft | 285 kts | 219° |
| 2026-05-07 00:47 | 39.81503 | -104.86330 | 9980 ft | 283 kts | 220° |
| 2026-05-07 00:47 | 39.79978 | -104.87889 | 9982 ft | 282 kts | 220° |
| 2026-05-07 00:47 | 39.78441 | -104.89476 | 9990 ft | 282 kts | 223° |
| 2026-05-07 00:47 | 39.77324 | -104.91520 | 10029 ft | 281 kts | 250° |
| 2026-05-07 00:48 | 39.76700 | -104.94006 | 10204 ft | 302 kts | 256° |
| 2026-05-07 00:48 | 39.76106 | -104.96756 | 10442 ft | 329 kts | 255° |
| 2026-05-07 00:48 | 39.75470 | -104.99675 | 11072 ft | 339 kts | 256° |
| 2026-05-07 00:48 | 39.74829 | -105.02647 | 11959 ft | 341 kts | 255° |
| 2026-05-07 00:49 | 39.74035 | -105.05517 | 12869 ft | 344 kts | 250° |
| 2026-05-07 00:49 | 39.73081 | -105.08390 | 13653 ft | 349 kts | 249° |
| 2026-05-07 00:49 | 39.72086 | -105.11296 | 14382 ft | 354 kts | 249° |
| 2026-05-07 00:49 | 39.71082 | -105.14248 | 15115 ft | 359 kts | 250° |
| 2026-05-07 00:50 | 39.70096 | -105.17191 | 15841 ft | 363 kts | 250° |
| 2026-05-07 00:50 | 39.69094 | -105.20224 | 16541 ft | 368 kts | 251° |
| 2026-05-07 00:50 | 39.68087 | -105.23293 | 17245 ft | 372 kts | 251° |
| 2026-05-07 00:50 | 39.67064 | -105.26406 | 17889 ft | 376 kts | 251° |
| 2026-05-07 00:51 | 39.66027 | -105.29555 | 18508 ft | 381 kts | 251° |
| 2026-05-07 00:51 | 39.64980 | -105.32733 | 19138 ft | 386 kts | 251° |
| 2026-05-07 00:51 | 39.63918 | -105.35956 | 19719 ft | 391 kts | 251° |
| 2026-05-07 00:51 | 39.62838 | -105.39230 | 20309 ft | 397 kts | 251° |
| 2026-05-07 00:52 | 39.61746 | -105.42538 | 20881 ft | 402 kts | 251° |
| 2026-05-07 00:52 | 39.60638 | -105.45896 | 21398 ft | 406 kts | 251° |
| 2026-05-07 00:52 | 39.59516 | -105.49289 | 21907 ft | 411 kts | 251° |
| 2026-05-07 00:52 | 39.58390 | -105.52673 | 22413 ft | 416 kts | 251° |
| 2026-05-07 00:53 | 39.57223 | -105.56180 | 22904 ft | 420 kts | 251° |
| 2026-05-07 00:53 | 39.56070 | -105.59632 | 23374 ft | 425 kts | 251° |
| 2026-05-07 00:53 | 39.54908 | -105.63177 | 23839 ft | 429 kts | 253° |
| 2026-05-07 00:53 | 39.53852 | -105.66805 | 24319 ft | 430 kts | 255° |
| 2026-05-07 00:54 | 39.52851 | -105.70478 | 24772 ft | 434 kts | 256° |
| 2026-05-07 00:54 | 39.51860 | -105.74181 | 25177 ft | 438 kts | 256° |
| 2026-05-07 00:54 | 39.50851 | -105.77923 | 25581 ft | 442 kts | 256° |
| 2026-05-07 00:54 | 39.49822 | -105.81694 | 25961 ft | 446 kts | 256° |
| 2026-05-07 00:55 | 39.48774 | -105.85494 | 26367 ft | 449 kts | 256° |
| 2026-05-07 00:55 | 39.47716 | -105.89306 | 26728 ft | 452 kts | 256° |
| 2026-05-07 00:55 | 39.46645 | -105.93145 | 27137 ft | 455 kts | 256° |
| 2026-05-07 00:55 | 39.45564 | -105.97014 | 27510 ft | 459 kts | 256° |
| 2026-05-07 00:56 | 39.44475 | -106.00904 | 27855 ft | 462 kts | 256° |
| 2026-05-07 00:56 | 39.43373 | -106.04832 | 28182 ft | 466 kts | 256° |
| 2026-05-07 00:56 | 39.42261 | -106.08799 | 28437 ft | 471 kts | 256° |
| 2026-05-07 00:56 | 39.41136 | -106.12798 | 28771 ft | 473 kts | 256° |
| 2026-05-07 00:57 | 39.40007 | -106.16808 | 29127 ft | 476 kts | 256° |
| 2026-05-07 00:57 | 39.38875 | -106.20829 | 29458 ft | 478 kts | 256° |
| 2026-05-07 00:57 | 39.37731 | -106.24886 | 29779 ft | 481 kts | 256° |
| 2026-05-07 00:57 | 39.36596 | -106.28910 | 30042 ft | 484 kts | 256° |
| 2026-05-07 00:58 | 39.35438 | -106.33009 | 30343 ft | 485 kts | 256° |
| 2026-05-07 00:58 | 39.34278 | -106.37101 | 30757 ft | 484 kts | 256° |
| 2026-05-07 00:58 | 39.33124 | -106.41163 | 31265 ft | 480 kts | 256° |
| 2026-05-07 00:58 | 39.31972 | -106.45212 | 31688 ft | 478 kts | 256° |
| 2026-05-07 00:59 | 39.29681 | -106.53268 | 32181 ft | 477 kts | 256° |
| 2026-05-07 00:59 | 39.28552 | -106.57232 | 32191 ft | 477 kts | 256° |
| 2026-05-07 01:00 | 39.26255 | -106.65276 | 32184 ft | 476 kts | 256° |
| 2026-05-07 01:00 | 39.23942 | -106.73264 | 32179 ft | 475 kts | 253° |
| 2026-05-07 01:01 | 39.21096 | -106.81015 | 32158 ft | 478 kts | 249° |
| 2026-05-07 01:01 | 39.18039 | -106.88566 | 32171 ft | 478 kts | 249° |
| 2026-05-07 01:02 | 39.14999 | -106.96174 | 32183 ft | 477 kts | 249° |
| 2026-05-07 01:02 | 39.12005 | -107.03831 | 32166 ft | 479 kts | 249° |
| 2026-05-07 01:03 | 39.09023 | -107.11499 | 32165 ft | 479 kts | 249° |
| 2026-05-07 01:03 | 39.06033 | -107.19171 | 32200 ft | 481 kts | 249° |
| 2026-05-07 01:04 | 39.03014 | -107.26887 | 32199 ft | 484 kts | 249° |
| 2026-05-07 01:04 | 38.99980 | -107.34620 | 32196 ft | 484 kts | 249° |
| 2026-05-07 01:05 | 38.96947 | -107.42329 | 32193 ft | 487 kts | 249° |
| 2026-05-07 01:05 | 38.93863 | -107.50143 | 32210 ft | 487 kts | 249° |
| 2026-05-07 01:06 | 38.90796 | -107.57899 | 32198 ft | 487 kts | 249° |
| 2026-05-07 01:06 | 38.87747 | -107.65592 | 32196 ft | 487 kts | 249° |
| 2026-05-07 01:07 | 38.84669 | -107.73333 | 32201 ft | 486 kts | 249° |
| 2026-05-07 01:07 | 38.81590 | -107.81061 | 32190 ft | 487 kts | 249° |
| 2026-05-07 01:08 | 38.78498 | -107.88802 | 32168 ft | 488 kts | 249° |
| 2026-05-07 01:08 | 38.76943 | -107.92692 | 31015 ft | 497 kts | 249° |
| 2026-05-07 01:08 | 38.75366 | -107.96637 | 30300 ft | 495 kts | 249° |
| 2026-05-07 01:08 | 38.73813 | -108.00500 | 29680 ft | 491 kts | 249° |
| 2026-05-07 01:09 | 38.72254 | -108.04370 | 29086 ft | 486 kts | 248° |
| 2026-05-07 01:09 | 38.70710 | -108.08199 | 28490 ft | 481 kts | 248° |
| 2026-05-07 01:09 | 38.69182 | -108.11990 | 27912 ft | 476 kts | 248° |
| 2026-05-07 01:09 | 38.67667 | -108.15744 | 27325 ft | 471 kts | 248° |
| 2026-05-07 01:10 | 38.66171 | -108.19452 | 26738 ft | 466 kts | 248° |
| 2026-05-07 01:10 | 38.65191 | -108.21880 | 26360 ft | 463 kts | 248° |
| 2026-05-07 01:10 | 38.63719 | -108.25520 | 25793 ft | 458 kts | 248° |
| 2026-05-07 01:10 | 38.62259 | -108.29126 | 25227 ft | 454 kts | 248° |
| 2026-05-07 01:11 | 38.60337 | -108.33873 | 24399 ft | 450 kts | 248° |
| 2026-05-07 01:11 | 38.58902 | -108.37409 | 23851 ft | 446 kts | 248° |
| 2026-05-07 01:11 | 38.57959 | -108.39732 | 23486 ft | 443 kts | 248° |
| 2026-05-07 01:11 | 38.56544 | -108.43213 | 22948 ft | 439 kts | 248° |
| 2026-05-07 01:12 | 38.55141 | -108.46661 | 22403 ft | 436 kts | 247° |
| 2026-05-07 01:12 | 38.53741 | -108.50076 | 21868 ft | 433 kts | 246° |
| 2026-05-07 01:12 | 38.51904 | -108.53151 | 21269 ft | 440 kts | 225° |
| 2026-05-07 01:12 | 38.49352 | -108.55286 | 20766 ft | 441 kts | 205° |
| 2026-05-07 01:13 | 38.46404 | -108.56327 | 20213 ft | 439 kts | 186° |
| 2026-05-07 01:13 | 38.43383 | -108.56197 | 19687 ft | 433 kts | 168° |
| 2026-05-07 01:13 | 38.40540 | -108.55023 | 19122 ft | 424 kts | 149° |
| 2026-05-07 01:13 | 38.38039 | -108.53120 | 18621 ft | 417 kts | 144° |
| 2026-05-07 01:14 | 38.35602 | -108.51133 | 18104 ft | 413 kts | 143° |
| 2026-05-07 01:14 | 38.33199 | -108.49150 | 17549 ft | 411 kts | 144° |
| 2026-05-07 01:14 | 38.30826 | -108.47214 | 17034 ft | 407 kts | 144° |
| 2026-05-07 01:14 | 38.28442 | -108.45288 | 16439 ft | 405 kts | 144° |
| 2026-05-07 01:15 | 38.26050 | -108.43375 | 15803 ft | 406 kts | 145° |
| 2026-05-07 01:15 | 38.23660 | -108.41468 | 15250 ft | 403 kts | 146° |
| 2026-05-07 01:15 | 38.21306 | -108.39600 | 14954 ft | 392 kts | 146° |
| 2026-05-07 01:15 | 38.19035 | -108.37802 | 14766 ft | 378 kts | 146° |
| 2026-05-07 01:16 | 38.16860 | -108.36082 | 14589 ft | 357 kts | 146° |
| 2026-05-07 01:16 | 38.14799 | -108.34450 | 14431 ft | 339 kts | 146° |
| 2026-05-07 01:16 | 38.12847 | -108.32902 | 14294 ft | 322 kts | 146° |
| 2026-05-07 01:16 | 38.10987 | -108.31430 | 14153 ft | 307 kts | 146° |
| 2026-05-07 01:17 | 38.09216 | -108.30028 | 14025 ft | 293 kts | 146° |
| 2026-05-07 01:17 | 38.07547 | -108.28707 | 13903 ft | 280 kts | 146° |
| 2026-05-07 01:17 | 38.05917 | -108.27420 | 13806 ft | 274 kts | 146° |
| 2026-05-07 01:17 | 38.04354 | -108.26101 | 13711 ft | 264 kts | 135° |
| 2026-05-07 01:18 | 38.03324 | -108.24303 | 13613 ft | 245 kts | 115° |
| 2026-05-07 01:18 | 38.02486 | -108.22457 | 13499 ft | 239 kts | 116° |
| 2026-05-07 01:18 | 38.01646 | -108.20648 | 13413 ft | 237 kts | 115° |
| 2026-05-07 01:18 | 38.01004 | -108.18713 | 13170 ft | 239 kts | 102° |
| 2026-05-07 01:19 | 38.00609 | -108.16676 | 12992 ft | 239 kts | 99° |
| 2026-05-07 01:19 | 38.00209 | -108.14621 | 12768 ft | 241 kts | 100° |
| 2026-05-07 01:19 | 37.99789 | -108.12571 | 12512 ft | 238 kts | 101° |
| 2026-05-07 01:19 | 37.99379 | -108.10567 | 12278 ft | 231 kts | 101° |
| 2026-05-07 01:20 | 37.98984 | -108.08620 | 12048 ft | 226 kts | 101° |
| 2026-05-07 01:20 | 37.98596 | -108.06711 | 11820 ft | 221 kts | 103° |
| 2026-05-07 01:20 | 37.98218 | -108.04840 | 11545 ft | 217 kts | 105° |
| 2026-05-07 01:20 | 37.97845 | -108.03007 | 11227 ft | 209 kts | 106° |
| 2026-05-07 01:21 | 37.97498 | -108.01306 | 10859 ft | 197 kts | 102° |
| 2026-05-07 01:21 | 37.97171 | -107.99683 | 10592 ft | 180 kts | 104° |
| 2026-05-07 01:21 | 37.96877 | -107.98239 | 10296 ft | 161 kts | 104° |
| 2026-05-07 01:21 | 37.96607 | -107.96905 | 10064 ft | 152 kts | 104° |
| 2026-05-07 01:22 | 37.96333 | -107.95543 | 9830 ft | 166 kts | 101° |
| 2026-05-07 01:22 | 37.96043 | -107.94107 | 9533 ft | 168 kts | 102° |
| 2026-05-07 01:22 | 37.95762 | -107.92693 | 9229 ft | 163 kts | 103° |
| 2026-05-07 01:22 | 37.95475 | -107.91315 | 9039 ft | 156 kts | 105° |
| 2026-05-07 01:23 | 37.95225 | -107.90134 | 9059 ft | 96 kts | 104° |
| 2026-05-07 01:23 | 37.95166 | -107.89847 | 9066 ft | 16 kts | 104° |
| 2026-05-07 01:23 | 37.95148 | -107.89714 | 9073 ft | 15 kts | 73° |
| 2026-05-07 01:23 | 37.95216 | -107.89674 | 9075 ft | 8 kts | 357° |
| 2026-05-07 01:24 | 37.95253 | -107.89724 | 9072 ft | 9 kts | 287° |
| 2026-05-07 01:24 | 37.95271 | -107.89814 | 9068 ft | 12 kts | 285° |
| 2026-05-07 01:24 | 37.95294 | -107.89925 | 9064 ft | 14 kts | 285° |
| 2026-05-07 01:24 | 37.95324 | -107.90058 | 9058 ft | 17 kts | 285° |
| 2026-05-07 01:25 | 37.95335 | -107.90110 | 9057 ft | 0 kts | 285° |
| 2026-05-07 01:25 | 37.95339 | -107.90129 | 9057 ft | 6 kts | 285° |
| 2026-05-07 01:26 | 37.95353 | -107.90194 | 9057 ft | 8 kts | 286° |
| 2026-05-07 01:26 | 37.95382 | -107.90213 | 9057 ft | 0 kts | 7° |
| 2026-05-07 01:26 | 37.95386 | -107.90212 | 9057 ft | 1 kts | 9° |
| 2026-05-07 01:26 | 37.95404 | -107.90208 | 9057 ft | 0 kts | 11° |
| 2026-05-07 01:27 | 37.95407 | -107.90207 | 9057 ft | 0 kts | 15° |